Time;durP1;ratioP1;P1;durP2;ratioP2;P2;SDS_P1;SDS_P2;PMS_P1;PMS_P2;Temp;Humidity;BMP_temperature;BMP_pressure;BME280_temperature;BME280_humidity;BME280_pressure;Samples;Min_cycle;Max_cycle;Signal;HPM_P1;HPM_P2
2024/04/04 00:01:58;;;;;;;6.80;5.60;;;;;;;2.74;89.04;100328.05;106623;1251;97939;-82
2024/04/04 00:04:44;;;;;;;6.50;5.00;;;;;;;2.74;89.13;100331.38;106668;1253;99972;-82
2024/04/04 00:07:31;;;;;;;7.20;5.00;;;;;;;2.72;89.04;100334.58;106872;1251;101333;-83
2024/04/04 00:10:17;;;;;;;9.70;5.40;;;;;;;2.70;88.75;100336.02;106646;1251;98453;-83
2024/04/04 00:13:03;;;;;;;7.20;5.40;;;;;;;2.68;88.86;100335.84;106682;1251;97461;-82
2024/04/04 00:15:49;;;;;;;6.00;4.90;;;;;;;2.67;88.91;100333.70;106698;1251;97093;-82
2024/04/04 00:18:36;;;;;;;8.90;5.10;;;;;;;2.66;88.84;100331.67;106776;1253;102149;-81
2024/04/04 00:21:22;;;;;;;8.40;5.70;;;;;;;2.65;88.86;100332.29;106862;1251;99313;-82
2024/04/04 00:24:08;;;;;;;7.40;5.10;;;;;;;2.61;88.81;100328.63;106667;1254;97714;-82
2024/04/04 00:26:54;;;;;;;7.30;4.70;;;;;;;2.58;88.56;100327.69;106810;1256;96679;-83
2024/04/04 00:29:40;;;;;;;6.60;4.70;;;;;;;2.55;88.56;100324.38;106700;1250;96678;-82
2024/04/04 00:32:25;;;;;;;6.40;3.80;;;;;;;2.54;88.39;100324.33;106717;1251;99931;-82
2024/04/04 00:35:11;;;;;;;6.60;4.10;;;;;;;2.51;88.51;100322.89;106627;1254;99701;-83
2024/04/04 00:37:57;;;;;;;5.10;3.50;;;;;;;2.47;88.54;100324.58;106791;1250;98962;-83
2024/04/04 00:40:42;;;;;;;5.60;4.00;;;;;;;2.44;88.46;100325.09;106789;1251;96661;-83
2024/04/04 00:43:28;;;;;;;4.80;3.50;;;;;;;2.39;88.68;100321.31;106730;1254;97170;-83
2024/04/04 00:46:15;;;;;;;6.30;3.80;;;;;;;2.36;88.86;100321.98;106784;1251;100864;-83
2024/04/04 00:49:01;;;;;;;4.70;3.50;;;;;;;2.32;89.21;100323.85;106620;1256;99215;-82
2024/04/04 00:51:48;;;;;;;4.90;3.40;;;;;;;2.29;88.97;100321.50;106594;1251;97822;-83
2024/04/04 00:54:41;;;;;;;5.90;3.60;;;;;;;2.27;89.15;100323.78;106674;1251;96576;-83
2024/04/04 00:57:26;;;;;;;7.50;3.70;;;;;;;2.25;89.11;100319.91;106642;1250;97875;-83
2024/04/04 01:00:15;;;;;;;6.10;4.00;;;;;;;2.25;89.33;100322.80;106722;1251;101723;-83
2024/04/04 01:03:01;;;;;;;5.20;3.70;;;;;;;2.24;89.48;100324.59;106957;1251;100460;-83
2024/04/04 01:05:47;;;;;;;5.70;3.30;;;;;;;2.24;89.74;100322.52;106492;1251;98258;-83
2024/04/04 01:08:35;;;;;;;6.80;3.90;;;;;;;2.25;89.71;100323.00;106907;1253;96530;-84
2024/04/04 01:11:21;;;;;;;7.30;3.40;;;;;;;2.23;89.60;100323.31;106638;1251;98018;-82
2024/04/04 01:14:07;;;;;;;5.20;3.40;;;;;;;2.22;89.68;100326.78;106733;1251;100047;-82
2024/04/04 01:16:53;;;;;;;4.60;3.00;;;;;;;2.19;89.64;100326.54;106763;1256;100582;-83
2024/04/04 01:19:39;;;;;;;5.30;3.40;;;;;;;2.17;89.79;100325.23;106652;1257;100029;-82
2024/04/04 01:22:25;;;;;;;6.70;3.90;;;;;;;2.16;89.93;100324.31;106762;1250;97931;-82
2024/04/04 01:25:11;;;;;;;5.20;3.80;;;;;;;2.14;89.93;100322.53;106860;1254;97937;-83
2024/04/04 01:27:58;;;;;;;5.30;3.90;;;;;;;2.14;90.11;100319.55;106901;1249;111267;-83
2024/04/04 01:30:45;;;;;;;6.30;4.20;;;;;;;2.13;90.14;100319.64;106856;1251;100157;-83
2024/04/04 01:33:30;;;;;;;6.10;3.90;;;;;;;2.12;90.09;100319.39;106623;1251;98982;-82
2024/04/04 01:36:17;;;;;;;6.90;4.10;;;;;;;2.09;89.97;100322.67;106720;1253;97922;-82
2024/04/04 01:39:03;;;;;;;5.50;3.60;;;;;;;2.07;90.12;100324.48;106771;1251;97955;-83
2024/04/04 01:41:49;;;;;;;4.60;3.60;;;;;;;2.04;90.30;100324.92;106628;1251;101389;-82
2024/04/04 01:44:35;;;;;;;5.50;4.10;;;;;;;2.01;90.30;100326.60;106650;1251;99127;-83
2024/04/04 01:47:21;;;;;;;5.10;3.30;;;;;;;1.98;90.35;100330.79;106696;1253;97990;-83
2024/04/04 01:50:07;;;;;;;5.20;3.40;;;;;;;1.95;90.49;100332.60;106847;1250;99129;-83
2024/04/04 02:11:37;;;;;;;10.20;5.30;;;;;;;1.68;91.95;100322.92;103446;1292;635545;-83
2024/04/04 02:14:23;;;;;;;10.00;5.00;;;;;;;1.65;92.17;100321.28;105766;1267;95938;-82
2024/04/04 02:17:08;;;;;;;8.10;4.30;;;;;;;1.65;92.42;100322.66;105709;1266;95795;-84
2024/04/04 02:19:54;;;;;;;7.60;4.40;;;;;;;1.66;92.42;100324.34;106449;1262;99215;-82
2024/04/04 02:22:40;;;;;;;7.50;4.50;;;;;;;1.66;92.56;100322.89;106378;1257;100546;-85
2024/04/04 02:25:26;;;;;;;7.60;4.50;;;;;;;1.66;92.27;100318.75;106085;1254;221756;-83
2024/04/04 02:28:12;;;;;;;8.90;4.70;;;;;;;1.65;92.51;100315.50;106355;1254;95881;-83
2024/04/04 02:30:57;;;;;;;5.20;4.30;;;;;;;1.63;92.53;100309.85;106434;1260;96252;-82
2024/04/04 02:33:43;;;;;;;6.90;4.20;;;;;;;1.64;92.39;100306.79;106689;1254;99727;-84
2024/04/04 02:36:29;;;;;;;8.20;5.20;;;;;;;1.64;92.42;100308.51;106463;1250;99038;-83
2024/04/04 02:39:15;;;;;;;9.70;5.30;;;;;;;1.64;92.51;100307.78;106708;1251;99017;-83
2024/04/04 02:42:00;;;;;;;8.00;5.70;;;;;;;1.65;92.41;100304.92;106705;1251;96674;-84
2024/04/04 02:44:47;;;;;;;7.20;5.40;;;;;;;1.64;92.58;100306.89;106676;1256;97132;-82
2024/04/04 02:47:34;;;;;;;16.30;6.30;;;;;;;1.65;92.59;100306.48;106667;1251;99997;-82
2024/04/04 02:50:19;;;;;;;10.00;5.30;;;;;;;1.65;92.71;100305.05;106568;1253;99219;-84
2024/04/04 02:53:05;;;;;;;8.10;5.90;;;;;;;1.65;92.68;100306.54;106561;1256;97931;-85
2024/04/04 02:55:56;;;;;;;7.50;5.30;;;;;;;1.65;92.59;100304.74;106576;1250;96756;-81
2024/04/04 02:58:43;;;;;;;7.80;5.00;;;;;;;1.66;92.72;100307.06;106684;1251;97301;-83
2024/04/04 03:01:28;;;;;;;8.90;5.30;;;;;;;1.67;92.58;100306.17;106810;1251;99923;-83
2024/04/04 03:04:14;;;;;;;6.20;4.30;;;;;;;1.66;92.74;100309.20;106796;1255;99162;-83
2024/04/04 03:06:59;;;;;;;8.30;4.80;;;;;;;1.66;92.79;100311.29;106620;1251;99009;-84
2024/04/04 03:09:47;;;;;;;8.40;5.10;;;;;;;1.67;92.83;100309.81;106744;1251;95916;-85
2024/04/04 03:12:32;;;;;;;7.20;5.10;;;;;;;1.67;92.68;100308.82;106898;1255;96690;-85
2024/04/04 03:15:21;;;;;;;9.10;5.00;;;;;;;1.64;92.56;100310.59;106775;1256;99926;-85
2024/04/04 03:18:07;;;;;;;8.20;4.90;;;;;;;1.64;92.84;100311.89;106865;1256;99732;-84
2024/04/04 03:20:53;;;;;;;7.40;5.30;;;;;;;1.65;93.01;100316.56;106672;1257;97526;-84
2024/04/04 03:23:39;;;;;;;7.80;5.30;;;;;;;1.66;93.16;100314.52;106890;1251;95828;-84
2024/04/04 03:26:24;;;;;;;7.30;4.90;;;;;;;1.68;93.26;100315.53;106589;1251;96552;-84
2024/04/04 03:29:10;;;;;;;6.30;4.90;;;;;;;1.69;93.25;100316.84;106576;1251;101427;-84
2024/04/04 03:31:56;;;;;;;9.10;5.50;;;;;;;1.68;93.13;100320.84;106636;1251;100343;-84
2024/04/04 03:34:42;;;;;;;7.40;5.00;;;;;;;1.67;93.18;100326.23;106526;1256;97622;-83
2024/04/04 03:37:28;;;;;;;7.00;4.20;;;;;;;1.64;93.24;100323.86;106562;1256;96614;-83
2024/04/04 03:40:15;;;;;;;7.60;5.30;;;;;;;1.62;93.43;100322.98;106514;1251;96453;-83
2024/04/04 03:43:02;;;;;;;7.60;5.20;;;;;;;1.61;93.57;100322.67;106959;1251;101182;-83
2024/04/04 03:45:47;;;;;;;8.00;5.20;;;;;;;1.61;93.60;100321.95;106796;1251;99207;-83
2024/04/04 03:48:34;;;;;;;7.20;4.70;;;;;;;1.62;93.62;100320.85;106679;1251;98969;-83
2024/04/04 03:51:20;;;;;;;7.40;4.40;;;;;;;1.62;93.56;100319.96;106899;1251;96627;-83
2024/04/04 03:54:06;;;;;;;10.80;6.10;;;;;;;1.63;93.79;100320.94;106629;1256;96533;-83
2024/04/04 03:56:52;;;;;;;10.70;6.30;;;;;;;1.65;93.98;100317.09;106705;1257;102193;-83
2024/04/04 03:59:38;;;;;;;15.20;7.80;;;;;;;1.67;94.41;100312.95;106510;1256;99083;-83
2024/04/04 04:02:23;;;;;;;17.40;11.40;;;;;;;1.70;94.60;100308.11;106619;1259;98657;-85
2024/04/04 04:05:09;;;;;;;20.40;14.70;;;;;;;1.74;94.95;100310.09;106814;1256;95852;-84
2024/04/04 04:07:56;;;;;;;19.60;12.50;;;;;;;1.76;95.28;100313.71;106870;1255;96527;-83
2024/04/04 04:10:42;;;;;;;19.30;11.20;;;;;;;1.79;95.47;100316.46;106709;1251;100064;-83
2024/04/04 04:13:28;;;;;;;19.40;10.70;;;;;;;1.80;95.51;100310.90;99044;1251;10002780;-83
2024/04/04 04:16:14;;;;;;;55.80;21.00;;;;;;;1.82;95.85;100305.44;106504;1251;96780;-83
2024/04/04 04:18:59;;;;;;;51.50;24.10;;;;;;;1.86;96.17;100308.10;106636;1251;96604;-82
2024/04/04 04:21:45;;;;;;;37.30;17.00;;;;;;;1.89;96.64;100310.13;106628;1251;101308;-81
2024/04/04 04:24:31;;;;;;;33.80;18.70;;;;;;;1.92;96.96;100313.88;106791;1257;100475;-83
2024/04/04 04:27:17;;;;;;;29.90;17.50;;;;;;;1.96;97.25;100308.41;106860;1251;98680;-83
2024/04/04 04:30:04;;;;;;;25.60;15.10;;;;;;;2.00;97.84;100303.66;106823;1251;96604;-84
2024/04/04 04:32:50;;;;;;;29.70;17.70;;;;;;;2.03;97.82;100304.38;106524;1253;96502;-81
2024/04/04 04:35:37;;;;;;;36.90;19.30;;;;;;;2.07;98.06;100308.80;106913;1259;100088;-80
2024/04/04 04:38:22;;;;;;;32.90;17.70;;;;;;;2.11;98.15;100312.50;106536;1254;99122;-84
2024/04/04 04:41:08;;;;;;;22.80;12.80;;;;;;;2.14;98.40;100311.49;106373;1259;97796;-84
2024/04/04 04:43:55;;;;;;;27.20;13.50;;;;;;;2.20;98.66;100312.71;106323;1261;96601;-85
2024/04/04 04:46:40;;;;;;;23.60;12.30;;;;;;;2.25;98.88;100315.05;106451;1254;96506;-83
2024/04/04 04:49:27;;;;;;;23.40;11.30;;;;;;;2.29;98.90;100321.55;106301;1254;100067;-83
2024/04/04 04:52:14;;;;;;;21.70;12.00;;;;;;;2.33;99.06;100325.70;106454;1258;99170;-83
2024/04/04 04:54:59;;;;;;;26.20;15.00;;;;;;;2.40;99.36;100323.89;106315;1260;97910;-83
2024/04/04 04:57:46;;;;;;;20.10;12.60;;;;;;;2.44;99.39;100325.32;106230;1259;96735;-83
2024/04/04 05:00:32;;;;;;;20.40;12.10;;;;;;;2.47;99.67;100317.55;106389;1259;96514;-84
2024/04/04 05:03:21;;;;;;;22.40;12.90;;;;;;;2.52;99.70;100317.63;106398;1259;102127;-85
2024/04/04 05:06:07;;;;;;;22.00;13.00;;;;;;;2.58;99.73;100316.38;106500;1259;100243;-85
2024/04/04 05:08:52;;;;;;;21.00;14.40;;;;;;;2.62;99.74;100320.38;106443;1258;99409;-85
2024/04/04 05:11:38;;;;;;;20.50;12.30;;;;;;;2.66;99.71;100322.27;106485;1260;96510;-85
2024/04/04 05:14:24;;;;;;;18.20;11.00;;;;;;;2.70;99.84;100323.67;106396;1256;97191;-86
2024/04/04 05:17:10;;;;;;;24.40;17.60;;;;;;;2.73;99.81;100325.30;106231;1262;100463;-80
2024/04/04 05:19:55;;;;;;;21.10;13.10;;;;;;;2.77;99.68;100327.98;106586;1256;100176;-82
2024/04/04 05:22:44;;;;;;;17.40;13.00;;;;;;;2.80;99.72;100333.14;106465;1257;97764;-79
2024/04/04 05:25:29;;;;;;;19.20;12.60;;;;;;;2.83;99.81;100328.93;106540;1260;96677;-80
2024/04/04 05:28:14;;;;;;;23.40;15.60;;;;;;;2.87;99.77;100328.38;106626;1260;96457;-82
2024/04/04 05:31:00;;;;;;;20.40;13.60;;;;;;;2.92;100.00;100329.11;106641;1263;101300;-81
2024/04/04 05:33:46;;;;;;;21.40;13.60;;;;;;;2.95;99.86;100332.86;106571;1259;99083;-83
2024/04/04 05:36:32;;;;;;;19.20;13.10;;;;;;;2.98;99.64;100335.98;106262;1257;97835;-85
2024/04/04 05:39:18;;;;;;;33.00;21.60;;;;;;;3.00;99.66;100333.16;106429;1260;96597;-83
2024/04/04 05:42:04;;;;;;;31.70;21.50;;;;;;;3.02;99.61;100331.51;106166;1260;97159;-84
2024/04/04 05:44:49;;;;;;;35.00;23.50;;;;;;;3.05;99.47;100330.55;106211;1263;100071;-85
2024/04/04 05:47:36;;;;;;;36.40;20.60;;;;;;;3.09;99.82;100329.31;106466;1257;100349;-80
2024/04/04 05:50:23;;;;;;;23.90;15.10;;;;;;;3.11;99.57;100328.55;106687;1259;98915;-81
2024/04/04 05:53:08;;;;;;;29.30;18.80;;;;;;;3.15;99.64;100328.05;106720;1259;96586;-81
2024/04/04 05:55:54;;;;;;;29.10;18.00;;;;;;;3.18;99.59;100324.94;106606;1260;96524;-81
2024/04/04 05:58:39;;;;;;;19.30;12.90;;;;;;;3.22;99.73;100326.11;106795;1259;100037;-82
2024/04/04 06:01:25;;;;;;;21.50;13.50;;;;;;;3.26;99.85;100327.13;106670;1259;101261;-81
2024/04/04 06:04:11;;;;;;;36.40;19.20;;;;;;;3.29;99.63;100324.15;106639;1259;99471;-81
2024/04/04 06:06:57;;;;;;;16.30;9.90;;;;;;;3.33;99.65;100326.06;106590;1257;96559;-81
2024/04/04 06:09:42;;;;;;;34.20;20.90;;;;;;;3.37;99.66;100328.02;106657;1254;96649;-80
2024/04/04 06:12:27;;;;;;;20.30;12.40;;;;;;;3.39;99.44;100328.65;106722;1257;101304;-82
2024/04/04 06:15:13;;;;;;;19.90;13.20;;;;;;;3.43;99.44;100328.64;106747;1258;99064;-81
2024/04/04 06:17:59;;;;;;;22.40;14.70;;;;;;;3.46;99.29;100334.92;106707;1258;99003;-80
2024/04/04 06:20:44;;;;;;;18.10;12.40;;;;;;;3.48;99.25;100330.95;106858;1254;96684;-81
2024/04/04 06:23:30;;;;;;;23.00;14.90;;;;;;;3.52;99.19;100329.17;107131;1254;95897;-81
2024/04/04 06:26:16;;;;;;;12.80;9.10;;;;;;;3.55;99.09;100328.13;106642;1260;101268;-82
2024/04/04 06:29:01;;;;;;;17.10;11.80;;;;;;;3.57;98.68;100327.95;106717;1254;100339;-83
2024/04/04 06:31:48;;;;;;;15.60;9.20;;;;;;;3.60;98.66;100326.66;106350;1257;99067;-83
2024/04/04 06:34:34;;;;;;;14.40;9.70;;;;;;;3.63;98.77;100323.48;106537;1260;96597;-83
2024/04/04 06:37:19;;;;;;;13.70;9.00;;;;;;;3.68;99.08;100323.73;106425;1258;97068;-83
2024/04/04 06:40:06;;;;;;;18.00;10.90;;;;;;;3.72;98.91;100325.45;106261;1255;101254;-84
2024/04/04 06:42:52;;;;;;;15.00;10.10;;;;;;;3.74;98.62;100324.54;106487;1257;100537;-82
2024/04/04 06:45:38;;;;;;;13.00;9.30;;;;;;;3.76;98.65;100322.74;106349;1264;99195;-84
2024/04/04 06:48:25;;;;;;;12.40;8.70;;;;;;;3.79;98.51;100324.01;106451;1256;97824;-84
2024/04/04 06:51:11;;;;;;;17.10;12.10;;;;;;;3.83;98.89;100323.94;106596;1260;98569;-83
2024/04/04 06:53:57;;;;;;;11.00;8.10;;;;;;;3.90;99.04;100324.55;106515;1254;101370;-84
2024/04/04 06:56:43;;;;;;;15.00;10.30;;;;;;;3.95;99.54;100325.95;106276;1259;99251;-83
2024/04/04 06:59:29;;;;;;;11.10;6.90;;;;;;;4.00;99.45;100326.75;106190;1253;100071;-83
2024/04/04 07:02:15;;;;;;;10.80;6.80;;;;;;;4.02;99.38;100328.96;106224;1267;98240;-84
2024/04/04 07:05:01;;;;;;;11.60;7.00;;;;;;;4.05;99.66;100327.81;106456;1260;98501;-83
2024/04/04 07:07:47;;;;;;;8.90;6.20;;;;;;;4.07;99.66;100328.30;106328;1257;103174;-84
2024/04/04 07:10:33;;;;;;;9.40;7.10;;;;;;;4.08;99.74;100328.39;106492;1256;100403;-84
2024/04/04 07:13:21;;;;;;;12.50;9.50;;;;;;;4.08;99.81;100330.66;106357;1261;98977;-84
2024/04/04 07:16:07;;;;;;;17.00;13.50;;;;;;;4.09;99.97;100335.05;106159;1258;98477;-84
2024/04/04 07:18:53;;;;;;;11.90;9.50;;;;;;;4.12;100.00;100335.59;106625;1256;98419;-84
2024/04/04 07:21:40;;;;;;;16.70;13.70;;;;;;;4.18;100.00;100329.98;106503;1258;101354;-84
2024/04/04 07:24:25;;;;;;;17.60;14.50;;;;;;;4.25;100.00;100324.73;106316;1253;99767;-83
2024/04/04 07:27:11;;;;;;;13.80;10.30;;;;;;;4.32;100.00;100323.50;106391;1257;97955;-84
2024/04/04 07:29:57;;;;;;;14.70;10.60;;;;;;;4.38;100.00;100324.25;106314;1261;99366;-83
2024/04/04 07:32:43;;;;;;;16.40;10.10;;;;;;;4.45;100.00;100326.86;106398;1254;97869;-84
2024/04/04 07:35:29;;;;;;;16.60;10.50;;;;;;;4.51;100.00;100327.86;106430;1257;101470;-84
2024/04/04 07:38:15;;;;;;;13.70;9.80;;;;;;;4.57;100.00;100324.65;106331;1257;100393;-84
2024/04/04 07:41:04;;;;;;;13.40;9.40;;;;;;;4.62;100.00;100323.73;106518;1261;97913;-83
2024/04/04 07:43:51;;;;;;;15.30;9.30;;;;;;;4.68;100.00;100327.80;106419;1259;97947;-82
2024/04/04 07:46:37;;;;;;;20.30;10.30;;;;;;;4.72;100.00;100329.64;106621;1255;98403;-82
2024/04/04 07:49:23;;;;;;;14.70;9.60;;;;;;;4.76;100.00;100329.92;106334;1254;103017;-83
2024/04/04 07:52:09;;;;;;;14.70;10.50;;;;;;;4.80;100.00;100329.70;106530;1254;101296;-82
2024/04/04 07:54:55;;;;;;;18.00;10.50;;;;;;;4.85;100.00;100329.56;106295;1252;98937;-81
2024/04/04 07:57:42;;;;;;;14.90;10.50;;;;;;;4.91;100.00;100327.48;106489;1253;98013;-85
2024/04/04 08:00:28;;;;;;;16.40;10.10;;;;;;;4.99;100.00;100330.54;106532;1260;97226;-79
2024/04/04 08:03:14;;;;;;;17.90;11.40;;;;;;;5.06;100.00;100332.66;106584;1257;101292;-86
2024/04/04 08:06:00;;;;;;;19.00;11.30;;;;;;;5.14;100.00;100332.73;106627;1260;101098;-80
2024/04/04 08:08:45;;;;;;;18.80;11.20;;;;;;;5.21;100.00;100330.88;106299;1254;97963;-79
2024/04/04 08:11:31;;;;;;;18.40;11.20;;;;;;;5.28;100.00;100329.64;106418;1255;97913;-79
2024/04/04 08:14:16;;;;;;;22.50;11.60;;;;;;;5.34;100.00;100328.48;106352;1252;98415;-79
2024/04/04 08:17:02;;;;;;;21.50;13.10;;;;;;;5.41;100.00;100328.20;106955;1257;101461;-80
2024/04/04 08:19:47;;;;;;;23.90;13.50;;;;;;;5.48;100.00;100325.52;106946;1255;99851;-80
2024/04/04 08:22:35;;;;;;;22.20;12.00;;;;;;;5.57;100.00;100327.47;106102;1270;100065;-80
2024/04/04 08:25:21;;;;;;;18.20;12.00;;;;;;;5.66;100.00;100329.02;106726;1254;96093;-80
2024/04/04 08:28:07;;;;;;;19.10;10.90;;;;;;;5.74;100.00;100329.20;107022;1254;97874;-80
2024/04/04 08:31:01;;;;;;;17.00;10.10;;;;;;;5.82;100.00;100330.25;106927;1254;102744;-80
2024/04/04 08:37:52;;;;;;;14.50;9.90;;;;;;;6.04;100.00;100323.31;102885;1288;637274;-78
2024/04/04 08:40:39;;;;;;;13.50;9.80;;;;;;;6.11;100.00;100320.20;105710;1269;96172;-79
2024/04/04 08:43:27;;;;;;;12.40;8.90;;;;;;;6.21;100.00;100321.44;105314;1268;95891;-79
2024/04/04 08:46:12;;;;;;;14.30;9.50;;;;;;;6.30;100.00;100313.86;105197;1269;99363;-78
2024/04/04 08:48:58;;;;;;;17.30;9.90;;;;;;;6.39;100.00;100308.80;105106;1267;99246;-78
2024/04/04 08:51:45;;;;;;;15.90;10.10;;;;;;;6.48;100.00;100301.41;105470;1267;234731;-78
2024/04/04 08:54:31;;;;;;;17.30;10.10;;;;;;;6.57;100.00;100300.25;105776;1261;95954;-79
2024/04/04 08:57:20;;;;;;;18.40;11.70;;;;;;;6.67;100.00;100298.38;105620;1265;96843;-79
2024/04/04 09:00:11;;;;;;;19.20;12.40;;;;;;;6.79;100.00;100299.54;105881;1266;99700;-78
2024/04/04 09:02:57;;;;;;;;;;;;;;;6.91;100.00;100303.14;105913;1264;99104;-79
2024/04/04 09:05:47;;;;;;;18.60;11.40;;;;;;;7.02;100.00;100308.35;105769;1266;99308;-80
2024/04/04 09:08:32;;;;;;;19.10;13.20;;;;;;;7.12;100.00;100309.58;106300;1263;96518;-80
2024/04/04 09:11:24;;;;;;;14.60;10.60;;;;;;;7.20;100.00;100309.85;106207;1266;97131;-80
2024/04/04 09:14:12;;;;;;;26.90;16.90;;;;;;;7.29;100.00;100305.12;106273;1264;99974;-79
2024/04/04 09:16:59;;;;;;;17.70;11.10;;;;;;;7.41;100.00;100299.27;106300;1261;99235;-80
2024/04/04 09:19:54;;;;;;;21.00;14.20;;;;;;;7.54;100.00;100294.44;106333;1264;100021;-80
2024/04/04 09:22:40;;;;;;;17.20;11.80;;;;;;;7.65;100.00;100296.12;106598;1261;96680;-81
2024/04/04 09:25:27;;;;;;;17.50;13.00;;;;;;;7.76;100.00;100295.89;106781;1261;96693;-81
2024/04/04 09:28:14;;;;;;;17.20;12.40;;;;;;;7.87;100.00;100292.85;106562;1260;99988;-81
2024/04/04 09:31:01;;;;;;;18.20;11.60;;;;;;;7.98;100.00;100286.48;106722;1266;99236;-80
2024/04/04 09:33:48;;;;;;;14.60;10.80;;;;;;;8.06;100.00;100286.95;105655;1269;97699;-80
2024/04/04 09:36:39;;;;;;;21.90;15.10;;;;;;;8.13;100.00;100285.77;105499;1270;96603;-81
2024/04/04 09:39:25;;;;;;;20.40;13.50;;;;;;;8.19;100.00;100284.44;105436;1267;97209;-80
2024/04/04 09:42:10;;;;;;;22.70;14.80;;;;;;;8.27;100.00;100290.14;105486;1269;100014;-79
2024/04/04 09:44:56;;;;;;;19.40;12.30;;;;;;;8.36;100.00;100293.55;105548;1267;99092;-80
2024/04/04 09:47:44;;;;;;;15.60;11.00;;;;;;;8.44;100.00;100289.89;105677;1270;98976;-80
2024/04/04 09:50:31;;;;;;;17.10;11.80;;;;;;;8.56;100.00;100292.52;105450;1269;96601;-80
2024/04/04 09:53:16;;;;;;;24.30;13.10;;;;;;;8.68;100.00;100293.11;105545;1269;97112;-80
2024/04/04 09:56:04;;;;;;;20.90;12.60;;;;;;;8.81;100.00;100291.38;105433;1267;101835;-79
2024/04/04 09:58:52;;;;;;;18.30;12.50;;;;;;;8.91;100.00;100291.95;105581;1269;100401;-79
2024/04/04 10:01:38;;;;;;;19.80;11.90;;;;;;;9.01;100.00;100289.83;106121;1270;97795;-80
2024/04/04 10:04:32;;;;;;;20.20;12.80;;;;;;;9.11;100.00;100294.67;105467;1267;96605;-79
2024/04/04 10:07:25;;;;;;;17.40;11.80;;;;;;;9.21;100.00;100289.70;106200;1263;98417;-79
2024/04/04 10:10:29;;;;;;;19.40;12.00;;;;;;;9.31;100.00;100290.73;106045;1257;100936;-80
2024/04/04 10:13:15;;;;;;;16.40;11.90;;;;;;;9.44;100.00;100289.51;106779;1257;99164;-82
2024/04/04 10:16:01;;;;;;;16.20;11.90;;;;;;;9.58;100.00;100284.41;106646;1257;99632;-82
2024/04/04 10:18:48;;;;;;;18.80;13.70;;;;;;;9.72;100.00;100284.95;106736;1257;96563;-80
2024/04/04 10:21:33;;;;;;;20.90;13.40;;;;;;;9.87;100.00;100282.19;106682;1263;97330;-81
2024/04/04 10:24:27;;;;;;;22.50;14.10;;;;;;;10.01;100.00;100279.83;106631;1257;101284;-87
2024/04/04 10:27:13;;;;;;;16.90;11.80;;;;;;;10.16;100.00;100282.05;106533;1262;99173;-80
2024/04/04 10:29:59;;;;;;;17.50;11.70;;;;;;;10.31;100.00;100280.27;106739;1261;98566;-79
2024/04/04 10:32:44;;;;;;;17.00;11.30;;;;;;;10.43;100.00;100276.41;106197;1263;96704;-80
2024/04/04 10:35:29;;;;;;;16.90;11.50;;;;;;;10.64;100.00;100274.67;105853;1263;97560;-80
2024/04/04 10:38:18;;;;;;;15.00;10.70;;;;;;;10.89;100.00;100273.70;105757;1258;99993;-77
2024/04/04 10:41:04;;;;;;;16.60;11.20;;;;;;;11.11;100.00;100274.11;106083;1258;100820;-80
2024/04/04 10:43:50;;;;;;;18.30;12.20;;;;;;;11.27;100.00;100270.64;106428;1257;97711;-79
2024/04/04 10:46:43;;;;;;;21.70;13.40;;;;;;;11.33;99.93;100271.59;106560;1257;95996;-80
2024/04/04 10:49:29;;;;;;;23.20;16.00;;;;;;;11.38;99.85;100274.38;106528;1263;97062;-81
2024/04/04 10:52:16;;;;;;;21.00;13.30;;;;;;;11.41;99.42;100276.33;106624;1263;99986;-80
2024/04/04 10:55:03;;;;;;;23.00;14.70;;;;;;;11.43;99.09;100276.58;106579;1264;100529;-77
2024/04/04 10:57:51;;;;;;;24.30;11.70;;;;;;;11.44;98.64;100269.75;106089;1263;98624;-79
2024/04/04 11:00:39;;;;;;;25.80;17.50;;;;;;;11.49;98.58;100266.88;106077;1258;96603;-79
2024/04/04 11:03:27;;;;;;;18.70;12.80;;;;;;;11.53;98.83;100262.67;106099;1258;97301;-79
2024/04/04 11:06:12;;;;;;;19.90;12.50;;;;;;;11.60;99.68;100260.07;106031;1263;100002;-80
2024/04/04 11:09:00;;;;;;;23.30;13.80;;;;;;;11.68;99.75;100259.65;106103;1259;99377;-79
2024/04/04 11:11:51;;;;;;;21.80;14.40;;;;;;;11.75;99.95;100258.27;106080;1263;99225;-79
2024/04/04 11:14:38;;;;;;;19.90;12.40;;;;;;;11.81;99.28;100251.15;105925;1263;96982;-85
2024/04/04 11:17:24;;;;;;;18.70;11.70;;;;;;;11.87;98.88;100250.00;105930;1257;96689;-84
2024/04/04 11:20:16;;;;;;;20.70;12.60;;;;;;;11.94;98.71;100249.69;105927;1257;100012;-86
2024/04/04 11:23:01;;;;;;;22.40;12.60;;;;;;;12.00;98.92;100247.30;105941;1263;101347;-82
2024/04/04 11:25:48;;;;;;;25.50;16.80;;;;;;;12.06;98.94;100241.66;106006;1265;99052;-87
2024/04/04 11:28:34;;;;;;;21.00;13.60;;;;;;;12.13;99.21;100242.32;106294;1257;97887;-85
2024/04/04 11:31:20;;;;;;;33.90;22.30;;;;;;;12.23;99.45;100241.67;106271;1257;96460;-86
2024/04/04 11:34:07;;;;;;;22.30;15.00;;;;;;;12.31;99.30;100236.60;106130;1257;99936;-83
2024/04/04 11:36:53;;;;;;;59.10;32.90;;;;;;;12.36;99.09;100230.86;105994;1263;136452;-87
2024/04/04 11:39:39;;;;;;;55.00;27.80;;;;;;;12.40;98.71;100228.98;106223;1258;98983;-81
2024/04/04 11:42:26;;;;;;;25.80;16.90;;;;;;;12.40;98.28;100227.30;106742;1258;96555;-89
2024/04/04 11:45:12;;;;;;;21.20;13.80;;;;;;;12.42;98.12;100220.27;106416;1264;96712;-79
2024/04/04 11:47:59;;;;;;;24.10;15.80;;;;;;;12.47;98.66;100218.61;106584;1257;101383;-82
2024/04/04 11:50:45;;;;;;;22.00;13.90;;;;;;;12.50;98.64;100217.13;105827;1261;101305;-81
2024/04/04 11:53:30;;;;;;;24.90;15.40;;;;;;;12.50;98.37;100216.30;106148;1257;98956;-81
2024/04/04 11:56:21;;;;;;;19.80;14.60;;;;;;;12.50;98.35;100214.02;106342;1264;96588;-89
2024/04/04 11:59:08;;;;;;;;;;;;;;;12.51;98.74;100209.76;106940;1258;94374;-89
2024/04/04 12:01:54;;;;;;;19.40;13.60;;;;;;;12.52;99.05;100208.40;106663;1257;102383;-88
2024/04/04 12:04:43;;;;;;;22.70;15.20;;;;;;;12.61;99.63;100205.58;106896;1256;99305;-93
2024/04/04 12:08:12;;;;;;;23.20;14.40;;;;;;;12.70;100.00;100200.10;106708;1257;99055;-91
2024/04/04 12:11:19;;;;;;;18.40;13.10;;;;;;;12.81;99.83;100197.30;107130;1257;96748;-90
2024/04/04 12:17:19;;;;;;;17.20;12.30;;;;;;;13.02;99.17;100194.30;106587;1258;100004;-86
2024/04/04 12:20:16;;;;;;;17.70;12.20;;;;;;;13.12;99.08;100197.81;105884;1260;99717;-85
2024/04/04 12:23:02;;;;;;;21.10;12.30;;;;;;;13.20;98.89;100199.27;106284;1260;99885;-86
2024/04/04 12:25:49;;;;;;;17.00;12.80;;;;;;;13.26;98.77;100197.22;105856;1262;96596;-87
2024/04/04 12:28:49;;;;;;;16.40;12.50;;;;;;;13.28;98.81;100193.40;106531;1260;97027;-86
2024/04/04 12:31:35;;;;;;;17.80;12.40;;;;;;;13.30;98.23;100189.84;106489;1259;101412;-85
2024/04/04 12:37:06;;;;;;;19.60;13.10;;;;;;;13.31;97.92;100183.16;107111;1261;98138;-84
2024/04/04 12:39:51;;;;;;;21.20;12.40;;;;;;;13.33;97.78;100180.30;106141;1259;96621;-84
2024/04/04 12:42:37;;;;;;;16.70;12.30;;;;;;;13.38;98.15;100179.49;106062;1262;97199;-84
2024/04/04 12:45:23;;;;;;;16.70;11.10;;;;;;;13.47;98.84;100177.99;106143;1260;100162;-89
2024/04/04 12:48:09;;;;;;;17.10;10.50;;;;;;;13.60;99.42;100173.62;106348;1265;99279;-88
2024/04/04 12:50:55;;;;;;;12.90;8.50;;;;;;;13.74;99.08;100171.23;106340;1265;97682;-87
2024/04/04 12:53:41;;;;;;;16.70;8.70;;;;;;;13.86;98.07;100170.67;106443;1259;96590;-88
2024/04/04 12:56:27;;;;;;;9.90;8.10;;;;;;;13.93;97.46;100175.37;106252;1259;96649;-87
2024/04/04 12:59:12;;;;;;;12.10;7.90;;;;;;;13.97;97.07;100171.41;106112;1266;101272;-87
2024/04/04 13:01:58;;;;;;;14.20;8.10;;;;;;;13.99;96.48;100172.17;105962;1259;100098;-87
2024/04/04 13:04:44;;;;;;;10.80;7.60;;;;;;;14.01;96.56;100165.36;105837;1265;99009;-82
2024/04/04 13:07:30;;;;;;;9.70;7.50;;;;;;;14.04;96.26;100159.91;105958;1259;96761;-83